Time;durP1;ratioP1;P1;durP2;ratioP2;P2;SDS_P1;SDS_P2;PMS_P1;PMS_P2;Temp;Humidity;BMP_temperature;BMP_pressure;BME280_temperature;BME280_humidity;BME280_pressure;Samples;Min_cycle;Max_cycle;Signal;HPM_P1;HPM_P2
2024/03/13 00:00:34;;;;;;;6.28;3.60;;;11.20;96.70;;;;;;4933794;29;20640;-71
2024/03/13 00:03:04;;;;;;;5.50;3.75;;;11.20;96.70;;;;;;4930722;29;20060;-70
2024/03/13 00:05:37;;;;;;;5.22;3.47;;;11.10;96.70;;;;;;4914957;29;20066;-72
2024/03/13 00:08:07;;;;;;;5.88;3.17;;;11.10;96.70;;;;;;4946150;29;20058;-71
2024/03/13 00:10:36;;;;;;;6.10;2.67;;;11.00;96.70;;;;;;4933314;29;20043;-71
2024/03/13 00:13:08;;;;;;;3.60;2.80;;;11.00;96.70;;;;;;4933215;29;20520;-71
2024/03/13 00:15:47;;;;;;;3.88;2.90;;;10.90;96.70;;;;;;4948731;29;20058;-71
2024/03/13 00:18:18;;;;;;;4.70;2.80;;;10.90;96.70;;;;;;4932688;29;20055;-71
2024/03/13 00:20:47;;;;;;;5.32;3.05;;;10.90;96.70;;;;;;4932741;29;20070;-71
2024/03/13 00:23:17;;;;;;;4.15;2.60;;;10.80;96.70;;;;;;4932796;29;20055;-69
2024/03/13 00:25:45;;;;;;;4.82;2.72;;;10.80;96.70;;;;;;4932519;29;20077;-67
2024/03/13 00:28:16;;;;;;;3.35;2.53;;;10.90;96.70;;;;;;4947232;29;20118;-68
2024/03/13 00:30:47;;;;;;;3.60;2.13;;;10.90;96.70;;;;;;4931709;29;20044;-69
2024/03/13 00:33:19;;;;;;;4.93;2.83;;;10.80;96.70;;;;;;4947755;29;20096;-69
2024/03/13 00:35:48;;;;;;;7.80;3.35;;;10.90;96.70;;;;;;4925488;29;20055;-69
2024/03/13 00:38:18;;;;;;;4.60;2.80;;;10.80;96.70;;;;;;4948535;29;20048;-69
2024/03/13 00:40:48;;;;;;;4.53;2.60;;;10.80;96.70;;;;;;4932265;29;20518;-69
2024/03/13 00:43:34;;;;;;;4.25;2.83;;;10.80;96.70;;;;;;4931037;29;20051;-68
2024/03/13 00:46:03;;;;;;;2.75;1.98;;;10.80;96.70;;;;;;4939281;29;20126;-69
2024/03/13 00:48:33;;;;;;;5.13;2.50;;;10.70;96.70;;;;;;4938982;28;20063;-69
2024/03/13 00:51:01;;;;;;;3.47;2.38;;;10.70;96.70;;;;;;4946538;29;20054;-69
2024/03/13 00:53:30;;;;;;;5.55;2.38;;;10.60;96.70;;;;;;4929959;29;20059;-67
2024/03/13 00:56:01;;;;;;;3.65;2.30;;;10.50;96.70;;;;;;4929333;29;20098;-68
2024/03/13 00:58:31;;;;;;;3.08;2.05;;;10.50;96.70;;;;;;4931313;29;20066;-68
2024/03/13 01:01:04;;;;;;;3.40;2.20;;;10.50;96.70;;;;;;4947706;28;20126;-69
2024/03/13 01:03:32;;;;;;;2.70;2.05;;;10.40;96.70;;;;;;4931866;29;20055;-69
2024/03/13 01:06:01;;;;;;;3.67;2.13;;;10.40;96.70;;;;;;4945757;29;20101;-69
2024/03/13 01:08:29;;;;;;;4.57;2.30;;;10.40;96.70;;;;;;4947537;29;20685;-69
2024/03/13 01:10:58;;;;;;;4.68;2.47;;;10.40;96.70;;;;;;4943797;29;20121;-68
2024/03/13 01:13:30;;;;;;;3.97;2.00;;;10.40;96.70;;;;;;4948754;29;20062;-68
2024/03/13 01:16:00;;;;;;;4.35;2.28;;;10.40;96.70;;;;;;4930751;29;20043;-69
2024/03/13 01:18:30;;;;;;;2.70;1.85;;;10.40;96.70;;;;;;4930008;29;20065;-69
2024/03/13 01:21:00;;;;;;;2.72;1.67;;;10.40;96.70;;;;;;4931779;29;20142;-68
2024/03/13 01:23:29;;;;;;;3.05;1.63;;;10.40;96.70;;;;;;4930999;29;20166;-68
2024/03/13 01:26:02;;;;;;;2.72;1.75;;;10.40;96.70;;;;;;4933591;29;20043;-69
2024/03/13 01:28:30;;;;;;;3.28;2.00;;;10.50;96.70;;;;;;4927518;29;20051;-68
2024/03/13 01:30:59;;;;;;;3.30;1.67;;;10.50;96.70;;;;;;4927054;29;20048;-69
2024/03/13 01:33:32;;;;;;;3.45;2.30;;;10.50;96.70;;;;;;4896627;29;20055;-68
2024/03/13 01:36:02;;;;;;;5.75;2.28;;;10.50;96.70;;;;;;4912671;29;20528;-68
2024/03/13 01:38:31;;;;;;;6.72;2.67;;;10.50;96.70;;;;;;4912307;29;20044;-68
2024/03/13 01:55:29;;;;;;;3.45;2.83;;;10.40;96.70;;;;;;4898971;29;20179;-69
2024/03/13 02:03:16;;;;;;;4.53;2.63;;;10.30;96.70;;;;;;4903992;29;20058;-68
2024/03/13 02:05:48;;;;;;;5.88;2.58;;;10.40;96.70;;;;;;4927920;29;20050;-69
2024/03/13 02:08:19;;;;;;;4.88;2.95;;;10.30;96.70;;;;;;4909473;29;20062;-68
2024/03/13 02:10:48;;;;;;;4.35;2.30;;;10.40;96.70;;;;;;4927046;29;20122;-69
2024/03/13 02:13:18;;;;;;;4.40;2.55;;;10.40;96.70;;;;;;4908168;29;20044;-68
2024/03/13 02:15:46;;;;;;;3.80;2.42;;;10.50;96.70;;;;;;4911621;29;20052;-71
2024/03/13 02:18:19;;;;;;;4.85;2.47;;;10.50;96.70;;;;;;4911070;29;20103;-71
2024/03/13 02:20:52;;;;;;;3.45;2.47;;;10.50;96.70;;;;;;4911705;29;20453;-71
2024/03/13 02:23:21;;;;;;;4.85;2.60;;;10.60;96.70;;;;;;4929251;29;20113;-71
2024/03/13 02:25:52;;;;;;;13.80;4.07;;;10.60;96.70;;;;;;4910358;29;20043;-70
2024/03/13 02:28:32;;;;;;;3.50;2.75;;;10.60;96.70;;;;;;4930012;29;20142;-71
2024/03/13 02:31:01;;;;;;;4.15;2.35;;;10.60;96.70;;;;;;4910991;29;20048;-71
2024/03/13 02:33:31;;;;;;;3.22;2.35;;;10.70;96.70;;;;;;4924326;29;20073;-71
2024/03/13 02:36:01;;;;;;;4.88;2.58;;;10.60;96.70;;;;;;4912453;29;20051;-71
2024/03/13 02:38:31;;;;;;;4.05;2.58;;;10.60;96.70;;;;;;4930754;29;20063;-71
2024/03/13 02:41:06;;;;;;;3.85;2.60;;;10.60;96.70;;;;;;4916052;29;20497;-71
2024/03/13 02:43:41;;;;;;;3.03;2.55;;;10.70;96.70;;;;;;4931965;29;20047;-70
2024/03/13 02:46:12;;;;;;;2.92;2.38;;;10.70;96.70;;;;;;4931737;29;20083;-71
2024/03/13 02:48:40;;;;;;;4.10;2.40;;;10.70;96.70;;;;;;4949234;29;20091;-71
2024/03/13 02:51:09;;;;;;;3.28;2.40;;;10.70;96.70;;;;;;4918368;29;20043;-71
2024/03/13 02:53:38;;;;;;;6.28;2.55;;;10.70;96.70;;;;;;4934695;29;20054;-70
2024/03/13 02:56:08;;;;;;;4.68;2.35;;;10.70;96.70;;;;;;4933737;29;20055;-71
2024/03/13 02:58:37;;;;;;;2.45;2.25;;;10.60;96.70;;;;;;4918088;29;20576;-71
2024/03/13 03:01:06;;;;;;;3.15;2.22;;;10.60;96.70;;;;;;4931105;29;20055;-71
2024/03/13 03:03:35;;;;;;;2.63;2.28;;;10.60;96.70;;;;;;4933435;29;20496;-70
2024/03/13 03:06:04;;;;;;;3.38;2.67;;;10.50;96.70;;;;;;4945607;29;20065;-70
2024/03/13 03:08:40;;;;;;;3.70;2.60;;;10.60;96.70;;;;;;4931969;29;20075;-71
2024/03/13 03:11:08;;;;;;;3.80;2.10;;;10.50;96.70;;;;;;4934146;29;20081;-71
2024/03/13 03:13:40;;;;;;;3.55;2.63;;;10.50;96.70;;;;;;4932936;29;20055;-70
2024/03/13 03:16:09;;;;;;;3.80;2.45;;;10.50;96.70;;;;;;4932456;29;20102;-71
2024/03/13 03:18:38;;;;;;;4.22;2.47;;;10.50;96.70;;;;;;4912378;29;20050;-71
2024/03/13 03:21:08;;;;;;;4.43;2.60;;;10.40;96.70;;;;;;4900685;29;20066;-70
2024/03/13 03:23:41;;;;;;;3.80;2.50;;;10.30;96.70;;;;;;4932241;29;20043;-71
2024/03/13 03:26:09;;;;;;;3.85;2.35;;;10.30;96.70;;;;;;4933193;28;20078;-70
2024/03/13 03:28:41;;;;;;;3.90;2.63;;;10.30;96.70;;;;;;4929472;29;20143;-71
2024/03/13 03:31:10;;;;;;;2.65;2.45;;;10.30;96.70;;;;;;4943574;29;20059;-71
2024/03/13 03:33:40;;;;;;;3.78;2.30;;;10.30;96.70;;;;;;4915394;29;20047;-71
2024/03/13 03:36:08;;;;;;;4.60;2.53;;;10.20;96.70;;;;;;4948366;29;20122;-71
2024/03/13 03:38:38;;;;;;;4.53;2.72;;;10.30;96.70;;;;;;4933215;29;20063;-71
2024/03/13 03:41:09;;;;;;;4.38;2.75;;;10.20;96.70;;;;;;4930424;29;20145;-71
2024/03/13 03:43:38;;;;;;;4.97;2.88;;;10.20;96.70;;;;;;4930775;29;20057;-71
2024/03/13 03:46:07;;;;;;;3.83;2.67;;;10.20;96.70;;;;;;4939765;29;20135;-72
2024/03/13 03:48:36;;;;;;;4.90;2.67;;;10.10;96.70;;;;;;4948616;29;20130;-71
2024/03/13 03:51:05;;;;;;;3.60;2.47;;;10.10;96.70;;;;;;4932614;29;20058;-70
2024/03/13 03:53:38;;;;;;;5.07;2.95;;;10.00;96.70;;;;;;4915152;29;20607;-71
2024/03/13 03:56:08;;;;;;;2.88;2.58;;;10.00;96.70;;;;;;4928281;29;20051;-70
2024/03/13 03:58:36;;;;;;;3.25;2.70;;;10.00;96.70;;;;;;4901267;29;20052;-71
2024/03/13 04:01:10;;;;;;;7.00;2.80;;;10.00;96.70;;;;;;4891946;29;20583;-71
2024/03/13 04:03:41;;;;;;;3.45;2.50;;;10.00;96.70;;;;;;4932432;29;20055;-71
2024/03/13 04:06:09;;;;;;;4.97;3.00;;;10.00;96.70;;;;;;4924210;29;20153;-71
2024/03/13 04:08:38;;;;;;;4.25;2.97;;;10.00;96.70;;;;;;4931385;29;20400;-71
2024/03/13 04:11:06;;;;;;;4.35;3.30;;;10.00;96.70;;;;;;4929200;29;20491;-71
2024/03/13 04:13:35;;;;;;;3.35;2.78;;;10.00;96.70;;;;;;4933324;29;20098;-71
2024/03/13 04:16:07;;;;;;;5.80;2.90;;;10.00;96.70;;;;;;4932528;29;20745;-71
2024/03/13 04:18:35;;;;;;;2.97;2.42;;;9.90;96.70;;;;;;4943670;28;20110;-71
2024/03/13 04:21:04;;;;;;;5.70;2.78;;;9.90;96.70;;;;;;4932357;29;20047;-71
2024/03/13 04:23:32;;;;;;;3.67;2.78;;;9.90;96.70;;;;;;4932611;29;20555;-71
2024/03/13 04:26:02;;;;;;;4.05;2.63;;;9.90;96.70;;;;;;4916666;29;20047;-71
2024/03/13 04:28:31;;;;;;;4.05;2.85;;;9.90;96.70;;;;;;4931814;29;20058;-71
2024/03/13 04:31:01;;;;;;;3.55;2.50;;;9.90;96.70;;;;;;4930275;29;20563;-71
2024/03/13 04:33:30;;;;;;;4.90;2.63;;;9.90;96.70;;;;;;4913400;29;20134;-71
2024/03/13 04:35:59;;;;;;;4.93;2.85;;;9.90;96.70;;;;;;4926141;29;20043;-72
2024/03/13 04:38:27;;;;;;;6.05;2.70;;;9.90;96.70;;;;;;4931897;29;20456;-70
2024/03/13 04:40:57;;;;;;;4.20;2.72;;;9.90;96.70;;;;;;4917680;29;20550;-71
2024/03/13 04:43:28;;;;;;;4.43;2.50;;;9.80;96.70;;;;;;4932394;29;20488;-71
2024/03/13 04:45:56;;;;;;;3.45;2.60;;;9.80;96.70;;;;;;4931782;29;20055;-70
2024/03/13 04:48:27;;;;;;;5.75;2.40;;;9.80;96.70;;;;;;4900765;29;20051;-71
2024/03/13 04:50:55;;;;;;;5.40;3.20;;;9.80;96.70;;;;;;4927344;29;20082;-71
2024/03/13 04:53:23;;;;;;;5.55;3.22;;;9.80;96.70;;;;;;4915541;29;20051;-71
2024/03/13 04:55:53;;;;;;;4.25;2.80;;;9.80;96.70;;;;;;4943209;29;20534;-71
2024/03/13 04:58:22;;;;;;;3.45;2.60;;;9.80;96.70;;;;;;4930347;29;20058;-70
2024/03/13 05:00:50;;;;;;;4.40;2.42;;;9.80;96.70;;;;;;4898469;29;20047;-71
2024/03/13 05:03:19;;;;;;;3.13;2.25;;;9.80;96.70;;;;;;4929994;29;20047;-71
2024/03/13 05:05:48;;;;;;;4.25;2.35;;;9.80;96.70;;;;;;4931092;29;20047;-71
2024/03/13 05:08:17;;;;;;;3.42;2.35;;;9.80;96.70;;;;;;4923764;29;20046;-70
2024/03/13 05:10:47;;;;;;;5.13;2.70;;;9.90;96.70;;;;;;4918552;29;20055;-71
2024/03/13 05:13:15;;;;;;;5.88;2.58;;;9.90;96.70;;;;;;4909895;29;20056;-71
2024/03/13 05:15:46;;;;;;;4.88;2.78;;;9.90;96.70;;;;;;4896834;29;20078;-70
2024/03/13 05:18:14;;;;;;;3.83;3.08;;;9.90;96.70;;;;;;4931595;29;20872;-69
2024/03/13 05:20:43;;;;;;;3.88;2.97;;;9.90;96.70;;;;;;4931380;29;20881;-70
2024/03/13 05:23:12;;;;;;;4.53;3.10;;;9.90;96.70;;;;;;4931526;29;20055;-70
2024/03/13 05:25:40;;;;;;;3.97;3.03;;;10.00;96.70;;;;;;4942376;29;20097;-70
2024/03/13 05:28:09;;;;;;;5.70;4.03;;;10.00;96.70;;;;;;4915776;29;20058;-70
2024/03/13 05:30:37;;;;;;;5.38;3.50;;;10.00;96.70;;;;;;4931771;29;20595;-70
2024/03/13 05:33:07;;;;;;;6.32;3.72;;;10.10;96.70;;;;;;4930946;29;20066;-70
2024/03/13 05:35:37;;;;;;;5.10;3.38;;;10.20;96.70;;;;;;4931528;29;20051;-69
2024/03/13 05:38:05;;;;;;;6.95;3.95;;;10.20;96.70;;;;;;4915911;29;20077;-70
2024/03/13 05:40:34;;;;;;;5.70;3.70;;;10.30;96.70;;;;;;4931996;29;20047;-70
2024/03/13 05:43:02;;;;;;;3.80;2.95;;;10.30;96.70;;;;;;4930929;29;20050;-69
2024/03/13 05:45:31;;;;;;;4.93;3.28;;;10.30;96.70;;;;;;4947741;29;20083;-70
2024/03/13 05:48:03;;;;;;;4.22;3.22;;;10.40;96.70;;;;;;4931710;29;20082;-69
2024/03/13 05:50:31;;;;;;;4.85;3.40;;;10.40;96.70;;;;;;4931606;29;20047;-69
2024/03/13 05:53:00;;;;;;;5.28;3.50;;;10.40;96.70;;;;;;4947574;28;20098;-69
2024/03/13 05:55:29;;;;;;;4.53;3.55;;;10.40;96.70;;;;;;4930192;29;20566;-70
2024/03/13 05:57:58;;;;;;;5.07;3.05;;;10.40;96.70;;;;;;4922861;29;20068;-70
2024/03/13 06:00:29;;;;;;;4.43;3.30;;;10.50;96.70;;;;;;4949250;28;20047;-70
2024/03/13 06:02:58;;;;;;;7.75;3.25;;;10.50;96.70;;;;;;4930282;29;20106;-70
2024/03/13 06:05:27;;;;;;;4.55;2.70;;;10.50;96.70;;;;;;4931043;29;20087;-70
2024/03/13 06:07:58;;;;;;;3.92;2.70;;;10.50;96.70;;;;;;4926966;29;20051;-70
2024/03/13 06:10:30;;;;;;;4.85;3.00;;;10.60;96.70;;;;;;4946101;29;20051;-69
2024/03/13 06:13:01;;;;;;;4.40;3.25;;;10.60;96.70;;;;;;4914958;29;20047;-70
2024/03/13 06:15:29;;;;;;;4.03;3.13;;;10.70;96.70;;;;;;4930359;29;20074;-69
2024/03/13 06:17:59;;;;;;;5.38;3.20;;;10.60;96.70;;;;;;4946415;28;20855;-70
2024/03/13 06:20:27;;;;;;;4.72;3.40;;;10.60;96.70;;;;;;4922042;29;20429;-70
2024/03/13 06:22:58;;;;;;;5.43;2.85;;;10.60;96.70;;;;;;4936978;29;20059;-69
2024/03/13 06:25:28;;;;;;;5.22;2.92;;;10.70;96.70;;;;;;4935732;29;20062;-70
2024/03/13 06:29:55;;;;;;;4.65;2.95;;;10.70;96.70;;;;;;4922411;28;20690;-70
2024/03/13 06:30:44;;;;;;;5.05;2.92;;;10.70;96.70;;;;;;4937514;29;20864;-70
2024/03/13 06:33:13;;;;;;;4.18;2.70;;;10.70;96.70;;;;;;4898722;29;20178;-70
2024/03/13 06:35:41;;;;;;;6.22;2.85;;;10.70;96.70;;;;;;4952550;28;20054;-70
2024/03/13 06:38:11;;;;;;;4.82;2.95;;;10.70;96.70;;;;;;4936877;29;20702;-70
2024/03/13 06:40:42;;;;;;;4.28;2.78;;;10.80;96.70;;;;;;4936866;29;20676;-70
2024/03/13 06:43:10;;;;;;;7.03;2.70;;;10.90;96.70;;;;;;4922843;29;20043;-69
2024/03/13 06:45:47;;;;;;;5.50;3.22;;;11.00;96.70;;;;;;4953197;29;20051;-69
2024/03/13 06:48:18;;;;;;;5.32;3.10;;;11.00;96.70;;;;;;4936876;29;20051;-70
2024/03/13 06:50:48;;;;;;;7.40;3.30;;;11.10;96.70;;;;;;4936891;29;20133;-69
2024/03/13 06:53:18;;;;;;;4.90;3.38;;;11.20;96.70;;;;;;4936391;28;20110;-70
2024/03/13 06:55:47;;;;;;;4.05;3.00;;;11.20;96.70;;;;;;4926284;29;21063;-69
2024/03/13 06:58:17;;;;;;;3.22;2.75;;;11.30;96.70;;;;;;4919449;29;20122;-69
2024/03/13 07:00:48;;;;;;;4.30;3.10;;;11.30;96.70;;;;;;4902494;29;20062;-69
2024/03/13 07:03:16;;;;;;;4.78;3.08;;;11.40;96.70;;;;;;4920031;29;20702;-70
2024/03/13 07:05:45;;;;;;;4.50;3.25;;;11.40;96.70;;;;;;4936345;29;20134;-69
2024/03/13 07:08:15;;;;;;;4.45;3.00;;;11.50;96.70;;;;;;4937763;29;20060;-70
2024/03/13 07:10:44;;;;;;;5.13;3.08;;;11.60;96.70;;;;;;4937323;29;20090;-70
2024/03/13 07:13:14;;;;;;;3.95;3.00;;;11.70;96.70;;;;;;4936868;29;20062;-70
2024/03/13 07:15:44;;;;;;;3.78;2.80;;;11.80;96.70;;;;;;4936770;29;20058;-70
2024/03/13 07:18:17;;;;;;;4.90;2.92;;;11.80;96.70;;;;;;4935704;29;20051;-69
2024/03/13 07:20:48;;;;;;;3.47;2.30;;;11.80;96.70;;;;;;4936360;29;20101;-70
2024/03/13 07:23:16;;;;;;;3.58;2.53;;;11.80;96.70;;;;;;4936579;29;20708;-70
2024/03/13 07:25:44;;;;;;;3.58;2.60;;;11.80;96.70;;;;;;4921760;29;20058;-70
2024/03/13 07:28:14;;;;;;;5.38;2.28;;;11.80;96.70;;;;;;4916794;29;20612;-69
2024/03/13 07:30:45;;;;;;;6.57;2.50;;;11.90;96.70;;;;;;4927907;29;20044;-70
2024/03/13 07:33:14;;;;;;;4.57;2.47;;;11.90;96.70;;;;;;4914195;29;20533;-70
2024/03/13 07:35:43;;;;;;;6.35;2.67;;;11.80;96.70;;;;;;4933768;29;20106;-70
2024/03/13 07:38:11;;;;;;;3.30;2.20;;;11.90;96.70;;;;;;4933905;29;20560;-70
2024/03/13 07:40:40;;;;;;;3.28;2.28;;;12.00;96.70;;;;;;4933280;29;20663;-70
2024/03/13 07:43:09;;;;;;;3.88;2.45;;;12.00;96.70;;;;;;4932269;29;20078;-70
2024/03/13 07:45:42;;;;;;;4.15;3.05;;;12.10;96.70;;;;;;4923316;29;20051;-70
2024/03/13 07:48:11;;;;;;;4.50;2.72;;;12.10;96.70;;;;;;4917287;29;20062;-70
2024/03/13 07:50:41;;;;;;;4.88;2.90;;;12.00;96.70;;;;;;4919025;29;20066;-70
2024/03/13 07:53:09;;;;;;;5.13;2.83;;;12.10;96.70;;;;;;4917366;29;20512;-69
2024/03/13 07:55:40;;;;;;;4.63;3.28;;;12.20;96.70;;;;;;4932677;29;20078;-70
2024/03/13 07:58:10;;;;;;;4.07;3.13;;;12.30;96.70;;;;;;4933010;29;20059;-70
2024/03/13 08:00:40;;;;;;;6.68;2.97;;;12.40;96.70;;;;;;4917800;29;20047;-69
2024/03/13 08:03:11;;;;;;;7.18;3.15;;;12.50;96.70;;;;;;4936509;29;20505;-68
2024/03/13 08:05:41;;;;;;;4.68;3.03;;;12.60;96.70;;;;;;4932498;29;20063;-69
2024/03/13 08:08:12;;;;;;;5.72;3.83;;;12.70;96.70;;;;;;4903429;29;20477;-70
2024/03/13 08:10:59;;;;;;;6.00;3.65;;;12.80;96.70;;;;;;4935641;29;20055;-69
2024/03/13 08:13:46;;;;;;;7.88;4.55;;;12.90;96.70;;;;;;4932591;29;20046;-68
2024/03/13 08:16:34;;;;;;;6.68;4.82;;;12.90;96.70;;;;;;4933158;29;20055;-69
2024/03/13 08:19:21;;;;;;;6.85;4.53;;;13.00;96.70;;;;;;4935103;29;20134;-69
2024/03/13 08:22:07;;;;;;;7.00;4.10;;;13.20;96.70;;;;;;4931266;29;20055;-70
2024/03/13 08:24:54;;;;;;;5.13;4.10;;;13.30;96.70;;;;;;4930534;29;20042;-69
2024/03/13 08:27:41;;;;;;;12.77;4.70;;;13.50;96.70;;;;;;4928402;29;20095;-69
2024/03/13 08:30:26;;;;;;;5.38;3.83;;;13.70;96.70;;;;;;4932860;29;20295;-70
2024/03/13 08:33:15;;;;;;;6.30;4.10;;;13.80;96.70;;;;;;4934894;29;20047;-69
2024/03/13 08:36:04;;;;;;;6.00;3.70;;;13.90;96.70;;;;;;4932695;29;20382;-68
2024/03/13 08:38:51;;;;;;;4.75;3.70;;;13.90;96.70;;;;;;4934789;29;20055;-69
2024/03/13 08:41:37;;;;;;;5.47;3.95;;;14.00;96.70;;;;;;4933879;29;20494;-69
2024/03/13 08:44:24;;;;;;;6.60;4.00;;;14.10;96.70;;;;;;4932543;29;20051;-71
2024/03/13 08:47:10;;;;;;;;;;;14.10;96.70;;;;;;4935716;29;20046;-72
2024/03/13 08:49:58;;;;;;;4.32;3.58;;;14.10;96.70;;;;;;4934488;29;19927;-72
2024/03/13 08:52:45;;;;;;;4.57;3.33;;;14.20;96.70;;;;;;4928663;29;20050;-71
2024/03/13 08:55:36;;;;;;;6.47;2.75;;;14.30;96.70;;;;;;4934786;29;20509;-71
2024/03/13 08:58:22;;;;;;;5.22;2.58;;;14.30;96.70;;;;;;4946783;29;20392;-69
2024/03/13 09:01:09;;;;;;;6.38;2.58;;;14.40;96.70;;;;;;4934640;29;20055;-70
2024/03/13 09:03:58;;;;;;;5.78;3.30;;;14.40;96.70;;;;;;4931640;29;20067;-69
2024/03/13 09:06:48;;;;;;;6.55;3.83;;;14.40;96.70;;;;;;4931596;29;20652;-69
2024/03/13 09:09:23;;;;;;;3.70;2.47;;;14.50;96.70;;;;;;4931375;29;20632;-70
2024/03/13 09:11:51;;;;;;;4.60;2.10;;;14.60;96.70;;;;;;4909723;29;20149;-70
2024/03/13 09:14:20;;;;;;;3.33;1.60;;;14.60;96.70;;;;;;4930717;29;20039;-70
2024/03/13 09:16:49;;;;;;;3.97;2.00;;;14.60;96.70;;;;;;4916070;29;20055;-69
2024/03/13 09:19:18;;;;;;;4.70;1.63;;;14.80;96.70;;;;;;4915876;29;20495;-69
2024/03/13 09:21:48;;;;;;;4.13;1.73;;;14.80;96.70;;;;;;4930770;29;20142;-70
2024/03/13 09:24:19;;;;;;;3.75;1.75;;;15.00;96.70;;;;;;4931080;29;20194;-70
2024/03/13 09:26:49;;;;;;;1.98;1.33;;;15.20;96.70;;;;;;4863691;29;20051;-70
2024/03/13 09:29:20;;;;;;;1.88;1.05;;;15.30;96.70;;;;;;4917533;29;20179;-70
2024/03/13 09:31:52;;;;;;;3.35;1.63;;;15.30;96.70;;;;;;4933678;29;20109;-68
2024/03/13 09:34:21;;;;;;;4.63;1.27;;;15.30;96.70;;;;;;4931526;29;20098;-70
2024/03/13 09:36:50;;;;;;;4.93;1.00;;;15.30;96.70;;;;;;4924653;29;20055;-69
2024/03/13 09:39:21;;;;;;;2.70;1.08;;;15.10;96.70;;;;;;4946271;29;20073;-70
2024/03/13 09:41:53;;;;;;;2.55;0.85;;;15.10;96.70;;;;;;4931864;29;20456;-70
2024/03/13 09:44:24;;;;;;;2.38;0.90;;;15.30;96.70;;;;;;4931089;29;20048;-69
2024/03/13 09:46:54;;;;;;;4.45;1.23;;;15.40;96.70;;;;;;4931050;29;20047;-70
2024/03/13 09:49:27;;;;;;;2.80;0.98;;;15.40;96.70;;;;;;4914579;29;20063;-69
2024/03/13 09:51:59;;;;;;;2.25;1.08;;;15.40;96.70;;;;;;4930472;29;20055;-70
2024/03/13 09:54:29;;;;;;;3.80;1.10;;;15.40;96.70;;;;;;4932119;29;20142;-69
2024/03/13 09:56:58;;;;;;;3.28;1.17;;;15.50;96.70;;;;;;4931848;29;20055;-70
2024/03/13 09:59:28;;;;;;;4.28;1.45;;;15.50;96.70;;;;;;4932058;29;20075;-69
2024/03/13 10:01:59;;;;;;;4.80;1.25;;;15.50;96.70;;;;;;4931199;29;20111;-69
2024/03/13 10:04:29;;;;;;;2.22;1.15;;;15.40;96.70;;;;;;4931584;29;20086;-69
2024/03/13 10:06:59;;;;;;;3.20;1.30;;;15.30;96.70;;;;;;4900868;29;20086;-69
2024/03/13 10:09:35;;;;;;;2.10;1.00;;;15.30;96.70;;;;;;4946411;29;20079;-69
2024/03/13 10:12:05;;;;;;;4.07;1.40;;;15.30;96.70;;;;;;4925296;29;20050;-69
2024/03/13 10:14:38;;;;;;;2.10;1.08;;;15.40;96.70;;;;;;4930848;29;20054;-69
2024/03/13 10:17:10;;;;;;;2.75;1.20;;;15.70;96.70;;;;;;4915936;29;20603;-70
2024/03/13 10:19:41;;;;;;;2.72;1.33;;;15.80;96.70;;;;;;4930503;29;20043;-70
2024/03/13 10:22:09;;;;;;;3.63;1.65;;;15.90;96.70;;;;;;4927426;29;20066;-69
2024/03/13 10:24:41;;;;;;;1.85;1.25;;;15.90;96.70;;;;;;4931429;29;20417;-69
2024/03/13 10:27:10;;;;;;;3.08;1.63;;;15.90;96.70;;;;;;4914939;29;20069;-69
2024/03/13 10:29:41;;;;;;;3.53;2.05;;;16.00;96.70;;;;;;4930346;29;20051;-69
2024/03/13 10:32:10;;;;;;;3.03;2.17;;;16.10;96.70;;;;;;4946495;29;20054;-69
2024/03/13 10:34:42;;;;;;;3.40;2.20;;;16.10;96.70;;;;;;4931360;29;20045;-69
2024/03/13 10:37:14;;;;;;;3.55;2.17;;;16.10;96.70;;;;;;4914865;29;20066;-69
2024/03/13 10:39:44;;;;;;;4.35;2.42;;;16.20;96.70;;;;;;4914832;29;20047;-70
2024/03/13 10:42:12;;;;;;;4.70;2.58;;;16.10;96.70;;;;;;4914677;29;20055;-70
2024/03/13 10:44:43;;;;;;;4.43;2.10;;;16.10;96.70;;;;;;4947411;28;20048;-70
2024/03/13 10:47:13;;;;;;;4.50;2.50;;;16.00;96.70;;;;;;4931176;29;20048;-70
2024/03/13 10:49:44;;;;;;;3.63;2.53;;;16.10;96.70;;;;;;4927306;29;20465;-70
2024/03/13 10:52:13;;;;;;;3.60;2.33;;;16.30;96.70;;;;;;4914931;29;20516;-68
2024/03/13 10:54:42;;;;;;;4.38;2.40;;;16.60;96.70;;;;;;4929973;29;20414;-69
2024/03/13 10:57:18;;;;;;;3.65;2.00;;;16.80;96.70;;;;;;4945265;29;20070;-70
2024/03/13 10:59:48;;;;;;;4.10;2.25;;;16.80;96.70;;;;;;4930546;29;20535;-69
2024/03/13 11:02:18;;;;;;;5.30;2.80;;;16.80;96.70;;;;;;4930574;29;20051;-69
2024/03/13 11:04:49;;;;;;;4.55;2.67;;;16.90;96.70;;;;;;4914771;29;20143;-69
2024/03/13 11:07:18;;;;;;;4.38;2.22;;;17.00;96.70;;;;;;4925522;29;20154;-69
2024/03/13 11:09:47;;;;;;;3.55;2.35;;;17.00;96.70;;;;;;4934354;29;20055;-69
2024/03/13 11:12:19;;;;;;;4.05;2.33;;;17.20;96.70;;;;;;4933737;29;20512;-70
2024/03/13 11:14:50;;;;;;;5.05;3.10;;;17.20;96.70;;;;;;4901212;29;20574;-68
2024/03/13 11:17:21;;;;;;;5.10;2.78;;;17.10;96.70;;;;;;4920276;29;20058;-68
2024/03/13 11:19:52;;;;;;;5.30;2.65;;;17.30;96.70;;;;;;4926748;29;20063;-70
2024/03/13 11:22:21;;;;;;;2.83;2.25;;;17.50;96.70;;;;;;4934420;29;20047;-69
2024/03/13 11:24:51;;;;;;;3.70;2.47;;;17.60;96.70;;;;;;4950432;29;20050;-69
2024/03/13 11:27:22;;;;;;;4.45;2.63;;;17.50;96.70;;;;;;4915707;29;20129;-70
2024/03/13 11:29:51;;;;;;;5.05;3.05;;;17.60;96.70;;;;;;4932069;29;20062;-70
2024/03/13 11:32:22;;;;;;;3.75;2.63;;;17.90;96.70;;;;;;4933527;29;20043;-69
2024/03/13 11:34:51;;;;;;;5.18;2.53;;;18.10;96.70;;;;;;4933582;29;20789;-69
2024/03/13 11:37:23;;;;;;;3.65;2.58;;;18.10;96.70;;;;;;4935848;29;20053;-69
2024/03/13 11:39:57;;;;;;;5.28;2.30;;;18.10;96.70;;;;;;4934726;29;20154;-70
2024/03/13 11:42:32;;;;;;;4.70;2.55;;;18.30;96.70;;;;;;4933705;29;20061;-70
2024/03/13 11:45:23;;;;;;;5.28;3.10;;;18.50;96.70;;;;;;4933555;29;20043;-70
2024/03/13 11:48:01;;;;;;;7.03;3.22;;;18.60;96.70;;;;;;4932977;29;20079;-70
2024/03/13 11:50:32;;;;;;;4.88;3.00;;;18.60;96.70;;;;;;4918150;29;21075;-70
2024/03/13 11:53:06;;;;;;;4.03;2.42;;;18.70;96.70;;;;;;4933086;29;20055;-71
2024/03/13 11:55:35;;;;;;;4.88;2.40;;;18.70;96.70;;;;;;4931421;29;20044;-71
2024/03/13 11:58:17;;;;;;;4.05;2.58;;;18.90;96.70;;;;;;4902989;29;20170;-71
2024/03/13 12:00:48;;;;;;;4.90;2.78;;;18.60;96.70;;;;;;4933374;29;20047;-70
2024/03/13 12:03:21;;;;;;;5.03;2.25;;;18.50;96.70;;;;;;4948158;29;20059;-71
2024/03/13 12:05:51;;;;;;;5.07;1.90;;;18.40;96.70;;;;;;4885512;29;20058;-70
2024/03/13 12:08:21;;;;;;;3.22;2.00;;;18.30;96.70;;;;;;4933828;29;20142;-70
2024/03/13 12:10:51;;;;;;;5.30;2.13;;;18.30;96.70;;;;;;4898768;29;20063;-71
2024/03/13 12:13:19;;;;;;;2.80;1.60;;;18.50;96.70;;;;;;4935445;29;20059;-70
2024/03/13 12:15:52;;;;;;;3.20;1.60;;;18.60;96.70;;;;;;4901818;29;20129;-71
2024/03/13 12:18:20;;;;;;;3.17;1.85;;;18.50;96.70;;;;;;4920733;29;20055;-70
2024/03/13 12:20:51;;;;;;;6.70;1.60;;;18.70;96.70;;;;;;4948069;29;20082;-69
2024/03/13 12:23:23;;;;;;;2.40;1.20;;;18.80;96.70;;;;;;4933350;29;20047;-70
2024/03/13 12:25:53;;;;;;;4.55;1.10;;;18.80;96.70;;;;;;4932890;28;20055;-70
2024/03/13 12:28:25;;;;;;;2.25;0.88;;;18.90;96.70;;;;;;4932309;29;20063;-70
2024/03/13 12:30:55;;;;;;;3.35;1.00;;;18.80;96.70;;;;;;4932532;29;20055;-70
2024/03/13 12:33:24;;;;;;;4.30;1.35;;;18.80;96.70;;;;;;4900648;29;20058;-71
2024/03/13 12:35:58;;;;;;;3.55;1.27;;;19.00;96.70;;;;;;4932925;29;20055;-70
2024/03/13 12:38:38;;;;;;;4.55;1.17;;;19.10;96.70;;;;;;4945340;28;20133;-70
2024/03/13 12:41:11;;;;;;;3.35;1.30;;;19.10;96.70;;;;;;4948629;29;20547;-69
2024/03/13 12:43:43;;;;;;;2.85;0.75;;;19.20;96.70;;;;;;4925228;29;20055;-71
2024/03/13 12:46:15;;;;;;;4.82;1.60;;;19.20;96.70;;;;;;4932855;29;20089;-71
2024/03/13 12:48:46;;;;;;;2.85;1.13;;;19.20;96.70;;;;;;4948402;29;20166;-70
2024/03/13 12:51:16;;;;;;;4.15;1.48;;;19.20;96.70;;;;;;4932587;29;20137;-69
2024/03/13 12:53:45;;;;;;;4.85;1.27;;;19.20;96.70;;;;;;4901143;29;20062;-70
2024/03/13 12:56:15;;;;;;;5.10;1.20;;;19.20;96.70;;;;;;4928077;29;20055;-70
2024/03/13 12:58:44;;;;;;;2.35;1.02;;;19.30;96.70;;;;;;4948376;29;20138;-70
2024/03/13 13:01:17;;;;;;;4.72;1.33;;;19.10;96.70;;;;;;4931994;29;20062;-70
2024/03/13 13:03:46;;;;;;;3.50;1.20;;;19.20;96.70;;;;;;4917350;29;20054;-68
2024/03/13 13:06:16;;;;;;;2.90;1.15;;;19.30;96.70;;;;;;4929944;29;20052;-70
2024/03/13 13:08:48;;;;;;;4.10;1.33;;;19.20;96.70;;;;;;4947732;28;20062;-69
2024/03/13 13:11:18;;;;;;;5.60;1.10;;;19.10;96.70;;;;;;4931992;29;20057;-70
2024/03/13 13:13:49;;;;;;;4.07;2.50;;;19.10;96.70;;;;;;4912926;29;20059;-70
2024/03/13 13:16:20;;;;;;;3.22;0.98;;;19.10;96.70;;;;;;4947166;29;20055;-70
2024/03/13 13:18:52;;;;;;;3.45;1.13;;;19.00;96.70;;;;;;4908245;29;20050;-69
2024/03/13 13:21:27;;;;;;;3.55;1.00;;;19.00;96.70;;;;;;4931657;29;20058;-70
2024/03/13 13:23:56;;;;;;;5.80;0.77;;;19.00;96.70;;;;;;4931496;29;20109;-70
2024/03/13 13:26:25;;;;;;;4.45;0.85;;;18.90;96.70;;;;;;4915228;29;20039;-70
2024/03/13 13:28:55;;;;;;;2.15;0.45;;;19.00;96.70;;;;;;4915327;29;20063;-69